Time;durP1;ratioP1;P1;durP2;ratioP2;P2;SDS_P1;SDS_P2;PMS_P1;PMS_P2;Temp;Humidity;BMP_temperature;BMP_pressure;BME280_temperature;BME280_humidity;BME280_pressure;Samples;Min_cycle;Max_cycle;Signal;HPM_P1;HPM_P2
2024/04/13 00:02:15;;;;;;;;;;;;;;;11.44;92.71;98831.19;103936;1274;62926;-41
2024/04/13 00:04:42;;;;;;;;;;;;;;;11.43;93.05;98829.95;103859;1274;62936;-41
2024/04/13 00:07:09;;;;;;;;;;;;;;;11.44;93.59;98827.71;103879;1275;76032;-40
2024/04/13 00:09:36;;;;;;;;;;;;;;;11.44;93.87;98824.86;103892;1278;64370;-41
2024/04/13 00:12:03;;;;;;;;;;;;;;;11.44;94.12;98823.94;104024;1274;72638;-41
2024/04/13 00:14:30;;;;;;;;;;;;;;;11.42;94.39;98820.67;103913;1276;62988;-39
2024/04/13 00:16:57;;;;;;;;;;;;;;;11.38;94.73;98818.50;103969;1274;62923;-39
2024/04/13 00:19:24;;;;;;;;;;;;;;;11.34;95.24;98819.01;104194;1278;76696;-41
2024/04/13 00:21:52;;;;;;;;;;;;;;;11.30;95.60;98823.41;104408;1274;65964;-40
2024/04/13 00:24:19;;;;;;;;;;;;;;;11.30;95.90;98816.45;104340;1274;72379;-41
2024/04/13 00:26:46;;;;;;;;;;;;;;;11.33;96.09;98814.09;104384;1279;62967;-41
2024/04/13 00:29:13;;;;;;;;;;;;;;;11.33;96.33;98811.23;104399;1274;62983;-40
2024/04/13 00:31:40;;;;;;;;;;;;;;;11.34;96.69;98810.79;104387;1278;76023;-40
2024/04/13 00:34:07;;;;;;;;;;;;;;;11.36;96.76;98809.38;104178;1273;65635;-40
2024/04/13 00:36:35;;;;;;;;;;;;;;;11.41;96.95;98812.00;104079;1274;72600;-40
2024/04/13 00:39:04;;;;;;;;;;;;;;;11.45;97.00;98813.54;104177;1278;62900;-40
2024/04/13 00:41:32;;;;;;;;;;;;;;;11.49;97.04;98812.70;103974;1274;62961;-39
2024/04/13 00:44:00;;;;;;;;;;;;;;;11.50;97.02;98813.61;104180;1280;76187;-40
2024/04/13 00:46:31;;;;;;;;;;;;;;;11.53;97.02;98816.17;104414;1273;66080;-39
2024/04/13 00:48:59;;;;;;;;;;;;;;;11.56;96.92;98812.95;104330;1274;72465;-41
2024/04/13 00:51:29;;;;;;;;;;;;;;;11.60;96.97;98810.72;104252;1279;62898;-40
2024/04/13 00:53:56;;;;;;;;;;;;;;;11.66;96.84;98811.27;104011;1274;62984;-40
2024/04/13 00:56:23;;;;;;;;;;;;;;;11.75;96.54;98808.89;103815;1279;76287;-40
2024/04/13 00:58:51;;;;;;;;;;;;;;;11.83;95.98;98802.35;103885;1274;66185;-41
2024/04/13 01:01:18;;;;;;;;;;;;;;;11.89;95.64;98806.49;103997;1274;72467;-39
2024/04/13 01:03:45;;;;;;;;;;;;;;;11.93;95.09;98803.19;103883;1279;63051;-40
2024/04/13 01:06:13;;;;;;;;;;;;;;;11.96;94.77;98797.42;104015;1274;63323;-41
2024/04/13 01:08:40;;;;;;;;;;;;;;;11.99;94.46;98791.71;104384;1279;76821;-41
2024/04/13 01:11:08;;;;;;;;;;;;;;;12.02;94.35;98793.46;104187;1274;66078;-39
2024/04/13 01:13:37;;;;;;;;;;;;;;;12.05;94.04;98788.94;103939;1274;72734;-39
2024/04/13 01:16:05;;;;;;;;;;;;;;;12.10;94.13;98787.60;104143;1274;62902;-40
2024/04/13 01:18:35;;;;;;;;;;;;;;;12.14;93.75;98784.23;104127;1279;62891;-41
2024/04/13 01:21:02;;;;;;;;;;;;;;;12.17;93.67;98781.52;104323;1278;75968;-41
2024/04/13 01:23:30;;;;;;;;;;;;;;;12.20;93.33;98778.76;104394;1279;65980;-42
2024/04/13 01:25:58;;;;;;;;;;;;;;;12.23;93.04;98773.31;104447;1274;72651;-41
2024/04/13 01:28:25;;;;;;;;;;;;;;;12.27;92.82;98775.60;104040;1274;62898;-41
2024/04/13 01:30:56;;;;;;;;;;;;;;;12.28;92.85;98773.86;103874;1274;63438;-40
2024/04/13 01:33:24;;;;;;;;;;;;;;;12.28;92.70;98774.35;103786;1279;75468;-40
2024/04/13 01:35:56;;;;;;;;;;;;;;;12.26;92.71;98774.36;104069;1274;66710;-39
2024/04/13 01:38:23;;;;;;;;;;;;;;;12.26;92.56;98772.54;103968;1274;72595;-42
2024/04/13 01:40:49;;;;;;;;;;;;;;;12.28;92.58;98770.75;104063;1274;63044;-40
2024/04/13 01:43:16;;;;;;;;;;;;;;;12.31;92.41;98770.13;103819;1274;62900;-40
2024/04/13 01:45:43;;;;;;;;;;;;;;;12.33;92.56;98766.30;103873;1279;76055;-40
2024/04/13 01:48:11;;;;;;;;;;;;;;;12.35;92.52;98772.62;103899;1278;63961;-41
2024/04/13 01:50:38;;;;;;;;;;;;;;;12.37;92.47;98769.90;103956;1274;72504;-40
2024/04/13 01:53:05;;;;;;;;;;;;;;;12.39;92.17;98762.55;103979;1278;63251;-40
2024/04/13 01:55:32;;;;;;;;;;;;;;;12.39;91.93;98761.89;103902;1279;62920;-40
2024/04/13 01:57:59;;;;;;;;;;;;;;;12.39;91.94;98759.59;103909;1278;76303;-40
2024/04/13 02:00:25;;;;;;;;;;;;;;;12.39;91.81;98754.37;103874;1274;66060;-40
2024/04/13 02:02:52;;;;;;;;;;;;;;;12.38;91.81;98752.61;103977;1274;72606;-39
2024/04/13 02:05:19;;;;;;;;;;;;;;;12.36;91.86;98752.45;103861;1274;62864;-41
2024/04/13 02:07:46;;;;;;;;;;;;;;;12.34;91.89;98750.16;103885;1274;63348;-40
2024/04/13 02:10:14;;;;;;;;;;;;;;;12.33;91.86;98749.27;103988;1279;76111;-40
2024/04/13 02:12:42;;;;;;;;;;;;;;;12.32;91.94;98749.11;103924;1274;65156;-40
2024/04/13 02:15:09;;;;;;;;;;;;;;;12.30;91.90;98750.26;104340;1274;72701;-39
2024/04/13 02:17:40;;;;;;;;;;;;;;;12.30;91.82;98749.71;104397;1274;63008;-41
2024/04/13 02:20:11;;;;;;;;;;;;;;;12.28;92.02;98745.98;104397;1274;62945;-41
2024/04/13 02:22:38;;;;;;;;;;;;;;;12.23;92.13;98744.73;104406;1279;77347;-39
2024/04/13 02:25:08;;;;;;;;;;;;;;;12.21;92.08;98743.20;104300;1274;66281;-40
2024/04/13 02:27:35;;;;;;;;;;;;;;;12.20;92.13;98745.61;104040;1278;73215;-40
2024/04/13 02:30:03;;;;;;;;;;;;;;;12.18;92.13;98743.06;104431;1274;62960;-40
2024/04/13 02:32:30;;;;;;;;;;;;;;;12.15;92.27;98740.19;104418;1274;62859;-40
2024/04/13 02:34:57;;;;;;;;;;;;;;;12.12;92.34;98740.22;104320;1273;77068;-40
2024/04/13 02:37:24;;;;;;;;;;;;;;;12.09;92.43;98738.46;104189;1279;66246;-40
2024/04/13 02:39:51;;;;;;;;;;;;;;;12.08;92.52;98736.86;104095;1274;72523;-40
2024/04/13 02:42:18;;;;;;;;;;;;;;;12.08;92.54;98742.08;104271;1274;62984;-40
2024/04/13 02:44:47;;;;;;;;;;;;;;;12.06;92.55;98741.77;103893;1273;62885;-39
2024/04/13 02:47:13;;;;;;;;;;;;;;;12.04;92.61;98741.04;104117;1278;76329;-40
2024/04/13 02:49:40;;;;;;;;;;;;;;;11.98;92.57;98737.37;104010;1274;63924;-41
2024/04/13 02:52:07;;;;;;;;;;;;;;;11.92;92.59;98740.27;103804;1274;72417;-40
2024/04/13 02:54:34;;;;;;;;;;;;;;;11.87;92.78;98739.67;104199;1274;62879;-40
2024/04/13 02:57:02;;;;;;;;;;;;;;;11.82;92.94;98742.11;104145;1277;62920;-40
2024/04/13 02:59:29;;;;;;;;;;;;;;;11.79;93.36;98741.86;103922;1280;76319;-41
2024/04/13 03:01:56;;;;;;;;;;;;;;;11.76;93.59;98741.96;104076;1277;64280;-40
2024/04/13 03:04:24;;;;;;;;;;;;;;;11.72;93.67;98738.86;103950;1279;72937;-39
2024/04/13 03:06:51;;;;;;;;;;;;;;;11.69;93.81;98734.92;103934;1278;62887;-40
2024/04/13 03:09:18;;;;;;;;;;;;;;;11.65;94.01;98733.64;104127;1274;62917;-39
2024/04/13 03:11:45;;;;;;;;;;;;;;;11.59;94.36;98732.59;104270;1279;76167;-41
2024/04/13 03:14:11;;;;;;;;;;;;;;;11.55;94.56;98728.60;103974;1274;65864;-41
2024/04/13 03:16:38;;;;;;;;;;;;;;;11.50;94.92;98728.59;104085;1275;72499;-41
2024/04/13 03:19:05;;;;;;;;;;;;;;;11.48;95.15;98733.48;103986;1279;62885;-42
2024/04/13 03:21:35;;;;;;;;;;;;;;;11.46;95.59;98730.75;104368;1274;62922;-42
2024/04/13 03:24:03;;;;;;;;;;;;;;;11.43;95.81;98727.80;104231;1279;76249;-43
2024/04/13 03:26:31;;;;;;;;;;;;;;;11.41;96.01;98732.39;104440;1274;66282;-42
2024/04/13 03:28:58;;;;;;;;;;;;;;;11.40;96.02;98729.92;104398;1274;72651;-41
2024/04/13 03:31:25;;;;;;;;;;;;;;;11.39;96.38;98728.48;104283;1274;62764;-41
2024/04/13 03:33:52;;;;;;;;;;;;;;;11.39;96.38;98728.27;104349;1274;62919;-40
2024/04/13 03:36:19;;;;;;;;;;;;;;;11.40;96.57;98723.02;104400;1278;76151;-42
2024/04/13 03:38:48;;;;;;;;;;;;;;;11.40;96.49;98720.69;104369;1274;65908;-40
2024/04/13 03:41:15;;;;;;;;;;;;;;;11.42;96.38;98717.89;104285;1279;72414;-41
2024/04/13 03:43:43;;;;;;;;;;;;;;;11.44;96.24;98720.09;104271;1279;62910;-40
2024/04/13 03:46:10;;;;;;;;;;;;;;;11.45;96.11;98714.55;104076;1274;63000;-40
2024/04/13 03:48:38;;;;;;;;;;;;;;;11.46;96.13;98717.82;103821;1279;75990;-40
2024/04/13 03:51:06;;;;;;;;;;;;;;;11.47;95.86;98722.86;103917;1274;66327;-40
2024/04/13 03:53:34;;;;;;;;;;;;;;;11.46;95.61;98717.23;104002;1274;72657;-40
2024/04/13 03:56:01;;;;;;;;;;;;;;;11.45;95.54;98717.23;103866;1279;62990;-40
2024/04/13 03:58:29;;;;;;;;;;;;;;;11.46;95.55;98715.20;104220;1275;63141;-40
2024/04/13 04:00:56;;;;;;;;;;;;;;;11.47;95.41;98716.73;104224;1277;76273;-41
2024/04/13 04:03:23;;;;;;;;;;;;;;;11.48;95.27;98713.83;103875;1279;65789;-40
2024/04/13 04:05:50;;;;;;;;;;;;;;;11.48;95.24;98715.23;103835;1279;72463;-40
2024/04/13 04:08:21;;;;;;;;;;;;;;;11.49;95.12;98716.67;103935;1277;62850;-40
2024/04/13 04:10:48;;;;;;;;;;;;;;;11.48;95.17;98724.77;103810;1275;63260;-40
2024/04/13 04:13:15;;;;;;;;;;;;;;;11.50;95.13;98723.84;104051;1279;76267;-40
2024/04/13 04:15:42;;;;;;;;;;;;;;;11.52;94.87;98728.34;104397;1279;66137;-40
2024/04/13 04:18:09;;;;;;;;;;;;;;;11.55;94.91;98720.11;104211;1279;72590;-40
2024/04/13 04:20:36;;;;;;;;;;;;;;;11.59;94.72;98713.48;104463;1279;63035;-40
2024/04/13 04:23:05;;;;;;;;;;;;;;;11.61;94.57;98716.70;104322;1274;62932;-41
2024/04/13 04:25:32;;;;;;;;;;;;;;;11.59;94.41;98714.08;104344;1287;76059;-40
2024/04/13 04:27:59;;;;;;;;;;;;;;;11.59;94.53;98718.05;103965;1279;65845;-40
2024/04/13 04:30:26;;;;;;;;;;;;;;;11.60;94.25;98717.45;104344;1279;72785;-40
2024/04/13 04:32:54;;;;;;;;;;;;;;;11.62;94.24;98715.98;104108;1278;62886;-40
2024/04/13 04:35:21;;;;;;;;;;;;;;;11.66;94.09;98715.65;103944;1274;63019;-40
2024/04/13 04:37:48;;;;;;;;;;;;;;;11.68;94.04;98716.69;103896;1278;76021;-40
2024/04/13 04:40:15;;;;;;;;;;;;;;;11.72;93.83;98720.73;104133;1277;65636;-40
2024/04/13 04:42:43;;;;;;;;;;;;;;;11.76;93.69;98726.70;103909;1274;72459;-40
2024/04/13 04:45:10;;;;;;;;;;;;;;;11.80;93.45;98727.10;104014;1274;62859;-40
2024/04/13 04:47:37;;;;;;;;;;;;;;;11.84;93.35;98725.10;103969;1275;62923;-39
2024/04/13 04:50:04;;;;;;;;;;;;;;;11.88;93.23;98722.65;104059;1278;76309;-39
2024/04/13 04:52:32;;;;;;;;;;;;;;;11.92;93.02;98716.77;104001;1274;65270;-39
2024/04/13 04:55:04;;;;;;;;;;;;;;;11.95;92.76;98720.16;103927;1279;72484;-41
2024/04/13 04:57:31;;;;;;;;;;;;;;;11.95;92.52;98724.63;103892;1274;62921;-41
2024/04/13 04:59:58;;;;;;;;;;;;;;;11.92;92.50;98718.58;104028;1277;62913;-39
2024/04/13 05:02:25;;;;;;;;;;;;;;;11.90;92.33;98721.86;103813;1276;76754;-39
2024/04/13 05:04:52;;;;;;;;;;;;;;;11.92;92.51;98715.73;104248;1273;65975;-40
2024/04/13 05:07:19;;;;;;;;;;;;;;;11.91;92.44;98720.15;104017;1274;72696;-40
2024/04/13 05:09:47;;;;;;;;;;;;;;;11.88;92.52;98716.09;104572;1277;62869;-40
2024/04/13 05:12:14;;;;;;;;;;;;;;;11.88;92.76;98715.55;103953;1274;63029;-40
2024/04/13 05:14:41;;;;;;;;;;;;;;;11.87;92.74;98718.04;103853;1278;76221;-40
2024/04/13 05:17:08;;;;;;;;;;;;;;;11.91;92.74;98713.77;103824;1274;65774;-39
2024/04/13 05:19:38;;;;;;;;;;;;;;;11.96;92.72;98713.02;103838;1279;71920;-39
2024/04/13 05:22:06;;;;;;;;;;;;;;;12.00;92.66;98714.54;103813;1276;63008;-40
2024/04/13 05:24:33;;;;;;;;;;;;;;;12.05;92.50;98714.77;103893;1278;62865;-41
2024/04/13 05:27:05;;;;;;;;;;;;;;;12.11;92.42;98710.63;103905;1278;76329;-40
2024/04/13 05:29:34;;;;;;;;;;;;;;;12.18;92.18;98709.07;103812;1274;66267;-40
2024/04/13 05:32:02;;;;;;;;;;;;;;;12.23;91.92;98710.19;103863;1279;72399;-40
2024/04/13 05:34:29;;;;;;;;;;;;;;;12.28;91.66;98714.98;103972;1280;62898;-39
2024/04/13 05:36:56;;;;;;;;;;;;;;;12.30;91.28;98714.42;103864;1278;62907;-39
2024/04/13 05:39:23;;;;;;;;;;;;;;;12.34;91.19;98716.98;104296;1275;75979;-41
2024/04/13 05:41:50;;;;;;;;;;;;;;;12.36;91.24;98718.45;104042;1279;65968;-40
2024/04/13 05:44:17;;;;;;;;;;;;;;;12.41;91.01;98719.42;103962;1280;72506;-41
2024/04/13 05:46:44;;;;;;;;;;;;;;;12.46;90.96;98719.70;103877;1287;63523;-40
2024/04/13 05:49:11;;;;;;;;;;;;;;;12.50;90.52;98714.11;103875;1274;62916;-41
2024/04/13 05:51:38;;;;;;;;;;;;;;;12.53;90.54;98717.79;103902;1277;76019;-41
2024/04/13 05:54:05;;;;;;;;;;;;;;;12.57;90.36;98716.29;104278;1274;66029;-40
2024/04/13 05:56:32;;;;;;;;;;;;;;;12.62;89.97;98715.44;104357;1279;71469;-39
2024/04/13 05:58:59;;;;;;;;;;;;;;;12.67;90.01;98716.23;104337;1274;63005;-40
2024/04/13 06:01:26;;;;;;;;;;;;;;;12.76;89.95;98721.41;104137;1273;63371;-40
2024/04/13 06:03:54;;;;;;;;;;;;;;;12.82;89.47;98713.16;104212;1279;76141;-40
2024/04/13 06:06:21;;;;;;;;;;;;;;;12.88;89.17;98710.77;104140;1274;67019;-40
2024/04/13 06:08:48;;;;;;;;;;;;;;;12.94;88.84;98711.19;103943;1277;72433;-41
2024/04/13 06:11:15;;;;;;;;;;;;;;;12.97;88.71;98705.87;104232;1274;62814;-41
2024/04/13 06:13:42;;;;;;;;;;;;;;;13.02;88.54;98700.49;104047;1274;62901;-40
2024/04/13 06:16:09;;;;;;;;;;;;;;;13.09;88.09;98704.94;103861;1279;76166;-40
2024/04/13 06:18:36;;;;;;;;;;;;;;;13.16;87.69;98705.67;104087;1274;66145;-39
2024/04/13 06:21:04;;;;;;;;;;;;;;;13.24;87.42;98713.20;104152;1278;72587;-40
2024/04/13 06:23:31;;;;;;;;;;;;;;;13.33;87.26;98711.95;103994;1279;63243;-40
2024/04/13 06:25:58;;;;;;;;;;;;;;;13.42;86.63;98713.33;103927;1276;62999;-40
2024/04/13 06:28:26;;;;;;;;;;;;;;;13.46;86.37;98717.36;103852;1276;76201;-40
2024/04/13 06:30:54;;;;;;;;;;;;;;;13.54;86.42;98722.77;103835;1280;66015;-40
2024/04/13 06:33:21;;;;;;;;;;;;;;;13.64;86.00;98722.48;103805;1279;72544;-40
2024/04/13 06:35:51;;;;;;;;;;;;;;;13.71;85.38;98723.83;103836;1280;62858;-40
2024/04/13 06:38:23;;;;;;;;;;;;;;;13.72;84.83;98722.20;103824;1279;62913;-41
2024/04/13 06:40:51;;;;;;;;;;;;;;;13.73;84.30;98718.68;103888;1279;74763;-40
2024/04/13 06:43:19;;;;;;;;;;;;;;;13.76;83.88;98721.80;103848;1279;65301;-40
2024/04/13 06:45:46;;;;;;;;;;;;;;;13.82;83.95;98720.59;104020;1278;72735;-40
2024/04/13 06:48:13;;;;;;;;;;;;;;;13.90;83.55;98715.45;104360;1279;62894;-40
2024/04/13 06:50:41;;;;;;;;;;;;;;;13.99;83.56;98714.10;104072;1274;62990;-40
2024/04/13 06:53:08;;;;;;;;;;;;;;;14.06;82.32;98711.46;104003;1275;75960;-40
2024/04/13 06:55:35;;;;;;;;;;;;;;;14.09;82.31;98705.05;103968;1274;66754;-41
2024/04/13 06:58:02;;;;;;;;;;;;;;;14.18;82.33;98705.48;103817;1279;72733;-40
2024/04/13 07:00:29;;;;;;;;;;;;;;;14.27;81.87;98709.80;104042;1275;63002;-40
2024/04/13 07:02:56;;;;;;;;;;;;;;;14.35;81.07;98706.02;104119;1273;63346;-40
2024/04/13 07:05:25;;;;;;;;;;;;;;;14.36;80.71;98700.84;103872;1277;76279;-39
2024/04/13 07:07:52;;;;;;;;;;;;;;;14.33;80.75;98697.92;103979;1278;66037;-40
2024/04/13 07:10:19;;;;;;;;;;;;;;;14.31;80.24;98695.91;103931;1280;72600;-38
2024/04/13 07:12:46;;;;;;;;;;;;;;;14.24;80.17;98692.66;104096;1279;62827;-39
2024/04/13 07:15:13;;;;;;;;;;;;;;;14.19;80.50;98690.48;103945;1274;62911;-45
2024/04/13 07:17:40;;;;;;;;;;;;;;;14.19;80.63;98690.81;103924;1287;76182;-40
2024/04/13 07:20:08;;;;;;;;;;;;;;;14.27;80.85;98688.07;104085;1274;66153;-41
2024/04/13 07:22:35;;;;;;;;;;;;;;;14.41;80.86;98683.71;104398;1273;71725;-41
2024/04/13 07:25:03;;;;;;;;;;;;;;;14.52;80.73;98680.27;104181;1279;62895;-40
2024/04/13 07:27:30;;;;;;;;;;;;;;;14.66;80.30;98671.36;104126;1273;62930;-41
2024/04/13 07:29:57;;;;;;;;;;;;;;;14.83;79.89;98663.84;104526;1273;75204;-42
2024/04/13 07:32:24;;;;;;;;;;;;;;;14.94;79.55;98657.62;104379;1278;65341;-41
2024/04/13 07:34:51;;;;;;;;;;;;;;;15.08;79.37;98656.83;104298;1275;72430;-40
2024/04/13 07:37:18;;;;;;;;;;;;;;;15.23;78.68;98656.78;104068;1279;63257;-40
2024/04/13 07:39:45;;;;;;;;;;;;;;;15.35;77.63;98655.11;104537;1274;62861;-40
2024/04/13 07:42:12;;;;;;;;;;;;;;;15.42;76.63;98651.09;103886;1279;76297;-39
2024/04/13 07:44:39;;;;;;;;;;;;;;;15.46;76.57;98646.55;104273;1280;67365;-41
2024/04/13 07:47:09;;;;;;;;;;;;;;;15.55;76.41;98643.70;104204;1279;72403;-41
2024/04/13 07:49:36;;;;;;;;;;;;;;;15.64;76.09;98639.89;104143;1275;62864;-42
2024/04/13 07:52:04;;;;;;;;;;;;;;;15.75;76.26;98637.65;104110;1279;63093;-39
2024/04/13 07:54:31;;;;;;;;;;;;;;;15.88;75.62;98631.76;104002;1280;76241;-43
2024/04/13 07:56:58;;;;;;;;;;;;;;;16.02;74.81;98637.11;104290;1273;66093;-40
2024/04/13 07:59:25;;;;;;;;;;;;;;;16.10;74.03;98633.28;104385;1278;73380;-40
2024/04/13 08:01:52;;;;;;;;;;;;;;;16.17;73.43;98631.27;104315;1279;62891;-39
2024/04/13 08:04:19;;;;;;;;;;;;;;;16.24;72.70;98623.88;103850;1278;62914;-40
2024/04/13 08:06:47;;;;;;;;;;;;;;;16.30;71.58;98623.70;103893;1274;76075;-40
2024/04/13 08:09:14;;;;;;;;;;;;;;;16.32;71.69;98617.96;103852;1273;66913;-39
2024/04/13 08:11:41;;;;;;;;;;;;;;;16.40;71.80;98620.43;103840;1278;73454;-39
2024/04/13 08:14:08;;;;;;;;;;;;;;;16.48;70.73;98616.20;104104;1278;62929;-42
2024/04/13 08:16:39;;;;;;;;;;;;;;;16.52;70.25;98603.38;103894;1276;63080;-41
2024/04/13 08:19:06;;;;;;;;;;;;;;;16.56;70.17;98601.25;103940;1287;76302;-41
2024/04/13 08:21:36;;;;;;;;;;;;;;;16.62;70.03;98598.55;104247;1279;65652;-42
2024/04/13 08:24:04;;;;;;;;;;;;;;;16.71;69.80;98597.17;104075;1274;73344;-41
2024/04/13 08:26:31;;;;;;;;;;;;;;;16.77;68.65;98600.56;104430;1279;62834;-44
2024/04/13 08:28:58;;;;;;;;;;;;;;;16.82;68.01;98596.08;103940;1277;62879;-41
2024/04/13 08:31:25;;;;;;;;;;;;;;;16.92;68.28;98592.78;103882;1279;76013;-41
2024/04/13 08:33:52;;;;;;;;;;;;;;;17.09;68.13;98589.83;103973;1274;66508;-39
2024/04/13 08:36:19;;;;;;;;;;;;;;;17.22;67.83;98587.50;104349;1279;73533;-39
2024/04/13 08:38:46;;;;;;;;;;;;;;;17.30;67.29;98589.77;104131;1277;62798;-40
2024/04/13 08:41:17;;;;;;;;;;;;;;;17.38;66.91;98588.98;104408;1280;62971;-40
2024/04/13 08:43:44;;;;;;;;;;;;;;;17.50;65.93;98593.15;104194;1278;76986;-40
2024/04/13 08:46:11;;;;;;;;;;;;;;;17.63;65.72;98586.61;104099;1274;66951;-41
2024/04/13 08:48:38;;;;;;;;;;;;;;;17.80;64.87;98584.95;104101;1287;73714;-39
2024/04/13 08:51:06;;;;;;;;;;;;;;;17.98;63.18;98582.45;104255;1280;62811;-41
2024/04/13 08:53:34;;;;;;;;;;;;;;;18.07;62.73;98577.73;104062;1273;63000;-43
2024/04/13 08:56:02;;;;;;;;;;;;;;;18.16;61.91;98584.67;104018;1279;77151;-43
2024/04/13 08:58:30;;;;;;;;;;;;;;;18.22;61.06;98582.14;104134;1277;68566;-45
2024/04/13 09:00:59;;;;;;;;;;;;;;;18.29;60.74;98581.73;104068;1279;73687;-42
2024/04/13 09:03:29;;;;;;;;;;;;;;;18.30;60.44;98576.84;104338;1274;62968;-45
2024/04/13 09:05:57;;;;;;;;;;;;;;;18.28;60.01;98573.63;104333;1279;62917;-43
2024/04/13 09:08:24;;;;;;;;;;;;;;;18.26;59.66;98570.67;104297;1279;77731;-44
2024/04/13 09:10:52;;;;;;;;;;;;;;;18.19;59.28;98568.38;104009;1274;66017;-43
2024/04/13 09:13:19;;;;;;;;;;;;;;;18.14;59.42;98561.15;104288;1274;73984;-41
2024/04/13 09:15:46;;;;;;;;;;;;;;;18.17;59.66;98561.79;103979;1278;62911;-43
2024/04/13 09:18:13;;;;;;;;;;;;;;;18.25;59.13;98558.94;104038;1274;62994;-42
2024/04/13 09:20:40;;;;;;;;;;;;;;;18.34;58.48;98557.02;104105;1277;77127;-42
2024/04/13 09:23:07;;;;;;;;;;;;;;;18.44;57.85;98555.63;103914;1274;66603;-42
2024/04/13 09:25:34;;;;;;;;;;;;;;;18.52;56.75;98552.80;103950;1280;73747;-43
2024/04/13 09:28:02;;;;;;;;;;;;;;;18.60;56.46;98564.23;104021;1277;62885;-41
2024/04/13 09:30:29;;;;;;;;;;;;;;;18.65;56.27;98544.08;104185;1279;62924;-42
2024/04/13 09:33:03;;;;;;;;;;;;;;;18.73;55.64;98552.98;104004;1279;76187;-42
2024/04/13 09:35:30;;;;;;;;;;;;;;;18.73;55.36;98556.52;104094;1273;66737;-41
2024/04/13 09:38:01;;;;;;;;;;;;;;;18.61;55.84;98553.73;104018;1274;73746;-42
2024/04/13 09:40:31;;;;;;;;;;;;;;;18.49;56.56;98558.77;104154;1274;62942;-42
2024/04/13 09:43:00;;;;;;;;;;;;;;;18.34;57.27;98552.73;104407;1274;63064;-42
2024/04/13 09:45:27;;;;;;;;;;;;;;;18.27;58.11;98548.97;104107;1273;76348;-42
2024/04/13 09:47:58;;;;;;;;;;;;;;;18.35;58.92;98549.77;104025;1274;65806;-42
2024/04/13 09:50:28;;;;;;;;;;;;;;;18.44;58.16;98547.40;104084;1274;73567;-42
2024/04/13 09:52:57;;;;;;;;;;;;;;;18.41;58.71;98534.09;104112;1280;62927;-41
2024/04/13 09:55:24;;;;;;;;;;;;;;;18.44;59.52;98528.02;104476;1279;63006;-41
2024/04/13 09:57:51;;;;;;;;;;;;;;;18.55;58.91;98535.22;104005;1278;77214;-42
2024/04/13 10:00:18;;;;;;;;;;;;;;;18.53;58.00;98527.64;104022;1273;66600;-45
2024/04/13 10:02:45;;;;;;;;;;;;;;;18.49;58.45;98513.83;104069;1274;73720;-41
2024/04/13 10:05:13;;;;;;;;;;;;;;;18.55;58.23;98514.39;104227;1279;62953;-42
2024/04/13 10:07:40;;;;;;;;;;;;;;;18.59;58.47;98508.61;103879;1273;62923;-41
2024/04/13 10:10:08;;;;;;;;;;;;;;;18.64;58.98;98504.27;104064;1274;77269;-42
2024/04/13 10:12:36;;;;;;;;;;;;;;;18.75;58.26;98507.70;104208;1278;66661;-41
2024/04/13 10:15:06;;;;;;;;;;;;;;;18.81;58.26;98499.70;104067;1277;74032;-42
2024/04/13 10:17:33;;;;;;;;;;;;;;;18.93;58.00;98506.27;103964;1274;62999;-42
2024/04/13 10:20:00;;;;;;;;;;;;;;;19.05;57.08;98501.23;104085;1279;62899;-41
2024/04/13 10:22:28;;;;;;;;;;;;;;;19.09;56.87;98502.98;104179;1279;76264;-40
2024/04/13 10:25:06;;;;;;;;;;;;;;;19.07;56.22;98499.77;103954;1277;67205;-41
2024/04/13 10:27:33;;;;;;;;;;;;;;;19.02;56.00;98498.41;104173;1279;72746;-41
2024/04/13 10:30:02;;;;;;;;;;;;;;;18.98;55.95;98500.20;104121;1277;63003;-41
2024/04/13 10:32:30;;;;;;;;;;;;;;;18.93;55.92;98496.89;103991;1274;62898;-41
2024/04/13 10:35:07;;;;;;;;;;;;;;;18.91;56.22;98500.41;104318;1273;76846;-41
2024/04/13 10:37:37;;;;;;;;;;;;;;;18.93;56.13;98495.59;104186;1279;66274;-41
2024/04/13 10:40:05;;;;;;;;;;;;;;;18.92;55.92;98499.14;104192;1274;73756;-41
2024/04/13 10:42:35;;;;;;;;;;;;;;;18.90;56.06;98493.63;104289;1273;62856;-40
2024/04/13 10:45:18;;;;;;;;;;;;;;;18.84;56.36;98494.17;104445;1279;62905;-41
2024/04/13 10:47:46;;;;;;;;;;;;;;;18.73;57.11;98490.81;103953;1279;77205;-40
2024/04/13 10:50:13;;;;;;;;;;;;;;;18.63;57.85;98490.96;104080;1274;67048;-40
2024/04/13 10:52:41;;;;;;;;;;;;;;;18.54;58.47;98488.05;104374;1280;72039;-41
2024/04/13 10:55:17;;;;;;;;;;;;;;;18.42;59.24;98491.99;104423;1279;62867;-41
2024/04/13 10:57:52;;;;;;;;;;;;;;;18.29;59.74;98500.54;104386;1273;62872;-41
2024/04/13 11:00:20;;;;;;;;;;;;;;;18.18;60.29;98491.96;104425;1279;76618;-40
2024/04/13 11:02:50;;;;;;;;;;;;;;;18.12;60.62;98503.95;104211;1278;67319;-40
2024/04/13 11:05:18;;;;;;;;;;;;;;;18.03;60.79;98509.27;104144;1279;72147;-39
2024/04/13 11:07:45;;;;;;;;;;;;;;;17.91;61.24;98510.06;103980;1273;62908;-41
2024/04/13 11:10:12;;;;;;;;;;;;;;;17.78;61.84;98504.52;104202;1274;63019;-40
2024/04/13 11:12:39;;;;;;;;;;;;;;;17.69;62.33;98504.31;104227;1280;77314;-40
2024/04/13 11:15:06;;;;;;;;;;;;;;;17.66;63.01;98507.45;104087;1273;66919;-40
2024/04/13 11:17:34;;;;;;;;;;;;;;;17.61;63.57;98502.36;103888;1273;73493;-40
2024/04/13 11:20:01;;;;;;;;;;;;;;;17.54;64.07;98503.98;103989;1279;213997;-40
2024/04/13 11:22:29;;;;;;;;;;;;;;;17.45;64.56;98508.30;104058;1273;62922;-40
2024/04/13 11:24:56;;;;;;;;;;;;;;;17.39;64.83;98508.26;104306;1274;76938;-41
2024/04/13 11:27:23;;;;;;;;;;;;;;;17.34;64.83;98507.17;104409;1273;66304;-39
2024/04/13 11:29:50;;;;;;;;;;;;;;;17.28;65.05;98513.41;104166;1274;73717;-41
2024/04/13 11:32:17;;;;;;;;;;;;;;;17.20;65.51;98507.36;104065;1279;62994;-40
2024/04/13 11:34:44;;;;;;;;;;;;;;;17.14;65.90;98508.61;104645;1274;63069;-42
2024/04/13 11:37:11;;;;;;;;;;;;;;;17.09;66.16;98511.89;104301;1279;77031;-41
2024/04/13 11:39:42;;;;;;;;;;;;;;;17.03;66.36;98506.29;104575;1273;65731;-43
2024/04/13 11:42:11;;;;;;;;;;;;;;;16.98;66.70;98507.86;104259;1278;73649;-43
2024/04/13 11:44:38;;;;;;;;;;;;;;;16.97;67.17;98507.09;104153;1273;62927;-41
2024/04/13 11:47:06;;;;;;;;;;;;;;;16.97;67.41;98509.58;104078;1274;63003;-41
2024/04/13 11:49:33;;;;;;;;;;;;;;;16.98;67.39;98504.38;104369;1279;76927;-41
2024/04/13 11:52:05;;;;;;;;;;;;;;;16.99;67.58;98501.56;104353;1273;66568;-41
2024/04/13 11:54:32;;;;;;;;;;;;;;;17.03;67.57;98506.58;104053;1276;73512;-40
2024/04/13 11:56:59;;;;;;;;;;;;;;;17.06;67.52;98505.29;104145;1273;62953;-40
2024/04/13 11:59:26;;;;;;;;;;;;;;;17.13;67.31;98505.20;104168;1273;63596;-40
2024/04/13 12:01:54;;;;;;;;;;;;;;;17.30;67.26;98495.95;103869;1279;76103;-41
2024/04/13 12:04:22;;;;;;;;;;;;;;;17.61;66.86;98494.20;103952;1273;66728;-39
2024/04/13 12:06:49;;;;;;;;;;;;;;;18.01;66.08;98490.44;104134;1274;72939;-40
2024/04/13 12:09:17;;;;;;;;;;;;;;;18.51;64.50;98485.67;104194;1279;62917;-41
2024/04/13 12:11:44;;;;;;;;;;;;;;;18.99;62.75;98471.02;104155;1273;63246;-43
2024/04/13 12:14:11;;;;;;;;;;;;;;;19.58;60.35;98472.43;103972;1277;76549;-43
2024/04/13 12:16:39;;;;;;;;;;;;;;;20.09;58.18;98463.71;104131;1273;67173;-40
2024/04/13 12:19:06;;;;;;;;;;;;;;;20.58;56.79;98465.40;104008;1273;72421;-42
2024/04/13 12:21:33;;;;;;;;;;;;;;;20.94;55.69;98460.61;103971;1274;62815;-42
2024/04/13 12:24:00;;;;;;;;;;;;;;;21.06;54.26;98457.80;104123;1274;63016;-42
2024/04/13 12:26:28;;;;;;;;;;;;;;;21.01;54.36;98451.65;104009;1277;76828;-42
2024/04/13 12:28:55;;;;;;;;;;;;;;;21.29;53.80;98448.24;103936;1277;67371;-41
2024/04/13 12:31:22;;;;;;;;;;;;;;;21.77;53.08;98434.84;103965;1274;73519;-42
2024/04/13 12:33:49;;;;;;;;;;;;;;;21.98;52.21;98431.86;103996;1278;62818;-41
2024/04/13 12:36:16;;;;;;;;;;;;;;;21.93;51.36;98438.66;103933;1273;62920;-41
2024/04/13 12:38:43;;;;;;;;;;;;;;;21.54;50.78;98435.34;103906;1277;78403;-41